Terminal Aerodrome Forecast
Issued by NWS

Home | Current Version | Previous Version | Text Only | Print | Product List | Glossary On
Versions: 1 2 3 4 5 6 7 8 9 10 11 12 13 14
000
FTUS45 KTFX 212300
TAFHVR
TAF
KHVR 212328Z 2200/2224 28012G20KT P6SM -SHRA BKN040 OVC060
     FM220400 26015KT P6SM SCT040 BKN060
     FM221500 22009KT P6SM SKC=

USA.gov is the U.S. government's official web portal to all federal, state and local government web resources and services.